sensor_id;sensor_type;location;lat;lon;timestamp;pressure;altitude;pressure_sealevel;temperature;humidity
76060;BME280;64759;52.220;5.170;2023-03-11T00:00:35;100665.69;;;1.96;75.40
76060;BME280;64759;52.220;5.170;2023-03-11T00:03:03;100667.22;;;1.99;75.98
76060;BME280;64759;52.220;5.170;2023-03-11T00:05:37;100667.75;;;2.04;75.54
76060;BME280;64759;52.220;5.170;2023-03-11T00:08:06;100674.06;;;2.13;76.00
76060;BME280;64759;52.220;5.170;2023-03-11T00:10:36;100678.19;;;2.15;76.07
76060;BME280;64759;52.220;5.170;2023-03-11T00:13:02;100681.28;;;2.20;75.73
76060;BME280;64759;52.220;5.170;2023-03-11T00:15:29;100681.19;;;2.22;76.57
76060;BME280;64759;52.220;5.170;2023-03-11T00:17:55;100679.84;;;2.16;75.57
76060;BME280;64759;52.220;5.170;2023-03-11T00:20:30;100684.28;;;2.13;74.70
76060;BME280;64759;52.220;5.170;2023-03-11T00:22:57;100683.56;;;2.11;74.78
76060;BME280;64759;52.220;5.170;2023-03-11T00:25:24;100692.31;;;2.07;74.23
76060;BME280;64759;52.220;5.170;2023-03-11T00:27:49;100687.31;;;2.05;74.45
76060;BME280;64759;52.220;5.170;2023-03-11T00:30:16;100687.94;;;2.09;74.24
76060;BME280;64759;52.220;5.170;2023-03-11T00:32:42;100691.84;;;2.14;74.90
76060;BME280;64759;52.220;5.170;2023-03-11T00:35:11;100693.69;;;2.12;74.41
76060;BME280;64759;52.220;5.170;2023-03-11T00:37:37;100702.19;;;2.13;73.77
76060;BME280;64759;52.220;5.170;2023-03-11T00:40:02;100705.44;;;2.15;74.56
76060;BME280;64759;52.220;5.170;2023-03-11T00:42:34;100707.00;;;2.17;74.36
76060;BME280;64759;52.220;5.170;2023-03-11T00:44:59;100711.22;;;2.18;73.81
76060;BME280;64759;52.220;5.170;2023-03-11T00:47:24;100720.59;;;2.18;74.24
76060;BME280;64759;52.220;5.170;2023-03-11T00:49:50;100721.63;;;2.15;73.39
76060;BME280;64759;52.220;5.170;2023-03-11T00:52:15;100727.91;;;2.10;73.50
76060;BME280;64759;52.220;5.170;2023-03-11T00:54:40;100731.63;;;2.04;72.91
76060;BME280;64759;52.220;5.170;2023-03-11T00:57:06;100732.53;;;2.03;73.22
76060;BME280;64759;52.220;5.170;2023-03-11T00:59:33;100733.44;;;2.02;73.65
76060;BME280;64759;52.220;5.170;2023-03-11T01:01:59;100730.53;;;2.08;74.28
76060;BME280;64759;52.220;5.170;2023-03-11T01:04:25;100734.66;;;2.11;74.09
76060;BME280;64759;52.220;5.170;2023-03-11T01:06:51;100736.22;;;2.13;74.48
76060;BME280;64759;52.220;5.170;2023-03-11T01:09:16;100739.38;;;2.17;75.03
76060;BME280;64759;52.220;5.170;2023-03-11T01:11:42;100739.31;;;2.18;74.15
76060;BME280;64759;52.220;5.170;2023-03-11T01:14:07;100739.22;;;2.20;74.17
76060;BME280;64759;52.220;5.170;2023-03-11T01:16:33;100745.44;;;2.16;74.10
76060;BME280;64759;52.220;5.170;2023-03-11T01:18:58;100745.59;;;2.13;74.07
76060;BME280;64759;52.220;5.170;2023-03-11T01:21:24;100745.50;;;2.14;74.56
76060;BME280;64759;52.220;5.170;2023-03-11T01:23:50;100747.31;;;2.12;74.16
76060;BME280;64759;52.220;5.170;2023-03-11T01:26:15;100753.38;;;2.11;73.79
76060;BME280;64759;52.220;5.170;2023-03-11T01:28:41;100755.91;;;2.11;73.99
76060;BME280;64759;52.220;5.170;2023-03-11T01:31:08;100751.88;;;2.07;73.59
76060;BME280;64759;52.220;5.170;2023-03-11T01:33:33;100770.75;;;2.05;73.77
76060;BME280;64759;52.220;5.170;2023-03-11T01:35:59;100775.31;;;1.99;74.65
76060;BME280;64759;52.220;5.170;2023-03-11T01:38:26;100772.13;;;1.96;74.85
76060;BME280;64759;52.220;5.170;2023-03-11T01:40:51;100769.47;;;1.97;75.66
76060;BME280;64759;52.220;5.170;2023-03-11T01:43:40;100760.19;;;1.96;75.93
76060;BME280;64759;52.220;5.170;2023-03-11T01:46:24;100764.63;;;1.93;75.12
76060;BME280;64759;52.220;5.170;2023-03-11T01:48:55;100761.09;;;1.95;75.59
76060;BME280;64759;52.220;5.170;2023-03-11T01:51:28;100761.91;;;1.96;76.33
76060;BME280;64759;52.220;5.170;2023-03-11T01:53:55;100767.91;;;1.95;75.05
76060;BME280;64759;52.220;5.170;2023-03-11T01:56:23;100766.19;;;1.95;75.54
76060;BME280;64759;52.220;5.170;2023-03-11T01:58:50;100771.41;;;1.94;74.79
76060;BME280;64759;52.220;5.170;2023-03-11T02:01:18;100772.13;;;1.96;75.83
76060;BME280;64759;52.220;5.170;2023-03-11T02:03:44;100774.47;;;1.99;75.74
76060;BME280;64759;52.220;5.170;2023-03-11T02:06:14;100778.59;;;2.02;75.27
76060;BME280;64759;52.220;5.170;2023-03-11T02:08:42;100771.69;;;2.04;75.04
76060;BME280;64759;52.220;5.170;2023-03-11T02:11:14;100771.59;;;2.05;75.43
76060;BME280;64759;52.220;5.170;2023-03-11T02:13:42;100770.84;;;2.03;75.04
76060;BME280;64759;52.220;5.170;2023-03-11T02:16:08;100774.69;;;1.96;74.37
76060;BME280;64759;52.220;5.170;2023-03-11T02:18:35;100783.22;;;1.95;74.76
76060;BME280;64759;52.220;5.170;2023-03-11T02:21:20;100780.56;;;1.82;73.36
76060;BME280;64759;52.220;5.170;2023-03-11T02:23:54;100782.06;;;1.71;74.03
76060;BME280;64759;52.220;5.170;2023-03-11T02:27:07;100785.88;;;1.64;73.83
76060;BME280;64759;52.220;5.170;2023-03-11T02:29:13;100781.59;;;1.64;75.41
76060;BME280;64759;52.220;5.170;2023-03-11T02:31:40;100782.66;;;1.60;75.25
76060;BME280;64759;52.220;5.170;2023-03-11T02:34:12;100785.47;;;1.56;76.49
76060;BME280;64759;52.220;5.170;2023-03-11T02:36:42;100781.47;;;1.52;76.90
76060;BME280;64759;52.220;5.170;2023-03-11T02:39:10;100786.06;;;1.45;75.57
76060;BME280;64759;52.220;5.170;2023-03-11T02:41:40;100772.50;;;1.45;77.24
76060;BME280;64759;52.220;5.170;2023-03-11T02:44:10;100773.28;;;1.45;76.67
76060;BME280;64759;52.220;5.170;2023-03-11T02:46:39;100769.69;;;1.49;76.54
76060;BME280;64759;52.220;5.170;2023-03-11T02:49:06;100775.53;;;1.51;77.30
76060;BME280;64759;52.220;5.170;2023-03-11T02:51:32;100778.34;;;1.47;76.65
76060;BME280;64759;52.220;5.170;2023-03-11T02:54:03;100776.84;;;1.43;76.56
76060;BME280;64759;52.220;5.170;2023-03-11T02:56:29;100785.47;;;1.40;75.78
76060;BME280;64759;52.220;5.170;2023-03-11T02:58:54;100782.03;;;1.41;77.07
76060;BME280;64759;52.220;5.170;2023-03-11T03:01:20;100784.84;;;1.37;77.01
76060;BME280;64759;52.220;5.170;2023-03-11T03:03:47;100780.06;;;1.30;76.87
76060;BME280;64759;52.220;5.170;2023-03-11T03:06:12;100788.97;;;1.23;77.51
76060;BME280;64759;52.220;5.170;2023-03-11T03:08:38;100787.34;;;1.22;77.96
76060;BME280;64759;52.220;5.170;2023-03-11T03:11:04;100790.78;;;1.21;77.80
76060;BME280;64759;52.220;5.170;2023-03-11T03:13:29;100796.59;;;1.23;78.42
76060;BME280;64759;52.220;5.170;2023-03-11T03:15:57;100797.59;;;1.21;77.99
76060;BME280;64759;52.220;5.170;2023-03-11T03:18:22;100798.53;;;1.20;77.33
76060;BME280;64759;52.220;5.170;2023-03-11T03:20:49;100805.59;;;1.15;77.47
76060;BME280;64759;52.220;5.170;2023-03-11T03:23:15;100814.13;;;1.14;77.33
76060;BME280;64759;52.220;5.170;2023-03-11T03:25:42;100811.75;;;1.11;77.75
76060;BME280;64759;52.220;5.170;2023-03-11T03:28:10;100816.94;;;1.09;77.83
76060;BME280;64759;52.220;5.170;2023-03-11T03:30:38;100817.81;;;1.08;76.96
76060;BME280;64759;52.220;5.170;2023-03-11T03:33:04;100825.41;;;1.10;77.43
76060;BME280;64759;52.220;5.170;2023-03-11T03:35:31;100825.41;;;1.10;77.29
76060;BME280;64759;52.220;5.170;2023-03-11T03:38:05;100821.94;;;1.11;77.38
76060;BME280;64759;52.220;5.170;2023-03-11T03:40:31;100825.31;;;1.11;77.16
76060;BME280;64759;52.220;5.170;2023-03-11T03:42:59;100844.00;;;1.12;77.25
76060;BME280;64759;52.220;5.170;2023-03-11T03:45:26;100831.34;;;1.10;77.60
76060;BME280;64759;52.220;5.170;2023-03-11T03:47:52;100840.72;;;1.10;77.66
76060;BME280;64759;52.220;5.170;2023-03-11T03:50:19;100841.69;;;1.07;76.55
76060;BME280;64759;52.220;5.170;2023-03-11T03:52:47;100850.25;;;1.06;76.83
76060;BME280;64759;52.220;5.170;2023-03-11T03:55:12;100855.28;;;1.08;76.98
76060;BME280;64759;52.220;5.170;2023-03-11T03:57:38;100850.09;;;1.09;77.91
76060;BME280;64759;52.220;5.170;2023-03-11T04:00:06;100860.28;;;1.09;77.28
76060;BME280;64759;52.220;5.170;2023-03-11T04:02:43;100861.81;;;0.96;76.94
76060;BME280;64759;52.220;5.170;2023-03-11T04:05:18;100868.88;;;0.91;77.31
76060;BME280;64759;52.220;5.170;2023-03-11T04:07:44;100861.41;;;0.88;77.38
76060;BME280;64759;52.220;5.170;2023-03-11T04:10:12;100860.59;;;0.88;77.83
76060;BME280;64759;52.220;5.170;2023-03-11T04:12:39;100866.66;;;0.85;78.02
76060;BME280;64759;52.220;5.170;2023-03-11T04:15:06;100874.16;;;0.88;78.43
76060;BME280;64759;52.220;5.170;2023-03-11T04:17:32;100873.47;;;0.85;77.69
76060;BME280;64759;52.220;5.170;2023-03-11T04:19:58;100872.75;;;0.83;78.49
76060;BME280;64759;52.220;5.170;2023-03-11T04:22:24;100869.38;;;0.82;78.26
76060;BME280;64759;52.220;5.170;2023-03-11T04:24:50;100862.19;;;0.73;78.70
76060;BME280;64759;52.220;5.170;2023-03-11T04:27:15;100875.91;;;0.71;78.97
76060;BME280;64759;52.220;5.170;2023-03-11T04:29:41;100864.88;;;0.70;79.34
76060;BME280;64759;52.220;5.170;2023-03-11T04:32:06;100864.16;;;0.68;79.13
76060;BME280;64759;52.220;5.170;2023-03-11T04:34:33;100874.41;;;0.66;78.66
76060;BME280;64759;52.220;5.170;2023-03-11T04:36:59;100873.66;;;0.64;78.84
76060;BME280;64759;52.220;5.170;2023-03-11T04:39:29;100877.13;;;0.63;78.88
76060;BME280;64759;52.220;5.170;2023-03-11T04:41:55;100875.69;;;0.58;78.09
76060;BME280;64759;52.220;5.170;2023-03-11T04:44:24;100890.91;;;0.59;78.41
76060;BME280;64759;52.220;5.170;2023-03-11T04:46:49;100890.16;;;0.57;77.99
76060;BME280;64759;52.220;5.170;2023-03-11T04:49:15;100889.41;;;0.55;78.26
76060;BME280;64759;52.220;5.170;2023-03-11T04:51:41;100886.28;;;0.50;78.45
76060;BME280;64759;52.220;5.170;2023-03-11T04:54:07;100902.31;;;0.52;78.70
76060;BME280;64759;52.220;5.170;2023-03-11T04:56:33;100901.56;;;0.50;78.22
76060;BME280;64759;52.220;5.170;2023-03-11T04:58:59;100910.31;;;0.45;78.53
76060;BME280;64759;52.220;5.170;2023-03-11T05:01:26;100900.06;;;0.46;78.69
76060;BME280;64759;52.220;5.170;2023-03-11T05:03:53;100890.53;;;0.50;78.98
76060;BME280;64759;52.220;5.170;2023-03-11T05:06:18;100891.22;;;0.53;78.58
76060;BME280;64759;52.220;5.170;2023-03-11T05:08:44;100890.31;;;0.54;78.68
76060;BME280;64759;52.220;5.170;2023-03-11T05:11:10;100885.44;;;0.50;78.84
76060;BME280;64759;52.220;5.170;2023-03-11T05:13:36;100883.44;;;0.39;78.56
76060;BME280;64759;52.220;5.170;2023-03-11T05:16:01;100890.53;;;0.33;78.94
76060;BME280;64759;52.220;5.170;2023-03-11T05:18:27;100895.78;;;0.30;79.83
76060;BME280;64759;52.220;5.170;2023-03-11T05:20:52;100905.16;;;0.29;79.27
76060;BME280;64759;52.220;5.170;2023-03-11T05:23:22;100916.47;;;0.24;80.19
76060;BME280;64759;52.220;5.170;2023-03-11T05:25:47;100909.19;;;0.16;80.39
76060;BME280;64759;52.220;5.170;2023-03-11T05:28:13;100909.41;;;0.12;79.80
76060;BME280;64759;52.220;5.170;2023-03-11T05:30:44;100909.47;;;0.10;80.50
76060;BME280;64759;52.220;5.170;2023-03-11T05:33:10;100912.22;;;0.06;80.10
76060;BME280;64759;52.220;5.170;2023-03-11T05:35:36;100914.88;;;0.04;79.99
76060;BME280;64759;52.220;5.170;2023-03-11T05:38:02;100927.50;;;0.06;80.12
76060;BME280;64759;52.220;5.170;2023-03-11T05:40:29;100923.25;;;0.06;80.17
76060;BME280;64759;52.220;5.170;2023-03-11T05:42:54;100919.13;;;0.04;80.27
76060;BME280;64759;52.220;5.170;2023-03-11T05:45:20;100925.88;;;0.05;80.25
76060;BME280;64759;52.220;5.170;2023-03-11T05:47:48;100929.44;;;0.00;79.58
76060;BME280;64759;52.220;5.170;2023-03-11T05:50:15;100933.75;;;0.00;80.24
76060;BME280;64759;52.220;5.170;2023-03-11T05:52:43;100930.28;;;0.01;80.43
76060;BME280;64759;52.220;5.170;2023-03-11T05:55:10;100933.66;;;0.02;80.06
76060;BME280;64759;52.220;5.170;2023-03-11T05:57:38;100940.75;;;-0.05;79.95
76060;BME280;64759;52.220;5.170;2023-03-11T06:00:06;100939.09;;;-0.06;80.48
76060;BME280;64759;52.220;5.170;2023-03-11T06:02:39;100939.19;;;-0.08;80.45
76060;BME280;64759;52.220;5.170;2023-03-11T06:05:07;100951.13;;;-0.10;80.77
76060;BME280;64759;52.220;5.170;2023-03-11T06:07:34;100954.66;;;-0.12;80.41
76060;BME280;64759;52.220;5.170;2023-03-11T06:10:01;100954.66;;;-0.12;80.84
76060;BME280;64759;52.220;5.170;2023-03-11T06:12:27;100957.19;;;-0.12;80.54
76060;BME280;64759;52.220;5.170;2023-03-11T06:15:17;100961.25;;;-0.08;81.00
76060;BME280;64759;52.220;5.170;2023-03-11T06:17:43;100955.22;;;-0.06;80.45
76060;BME280;64759;52.220;5.170;2023-03-11T06:20:08;100952.44;;;-0.01;80.69
76060;BME280;64759;52.220;5.170;2023-03-11T06:22:34;100957.31;;;0.04;80.33
76060;BME280;64759;52.220;5.170;2023-03-11T06:25:00;100958.19;;;0.03;80.05
76060;BME280;64759;52.220;5.170;2023-03-11T06:27:29;100962.50;;;0.02;80.13
76060;BME280;64759;52.220;5.170;2023-03-11T06:29:54;100975.06;;;0.05;80.25
76060;BME280;64759;52.220;5.170;2023-03-11T06:32:22;100976.63;;;0.08;80.77
76060;BME280;64759;52.220;5.170;2023-03-11T06:34:50;100971.53;;;0.08;80.23
76060;BME280;64759;52.220;5.170;2023-03-11T06:37:16;100983.38;;;0.09;80.22
76060;BME280;64759;52.220;5.170;2023-03-11T06:39:42;100976.44;;;0.12;81.02
76060;BME280;64759;52.220;5.170;2023-03-11T06:42:11;100988.66;;;0.23;80.77
76060;BME280;64759;52.220;5.170;2023-03-11T06:44:37;100981.56;;;0.29;80.21
76060;BME280;64759;52.220;5.170;2023-03-11T06:47:03;100988.16;;;0.33;80.22
76060;BME280;64759;52.220;5.170;2023-03-11T06:49:28;100983.06;;;0.33;79.84
76060;BME280;64759;52.220;5.170;2023-03-11T06:51:54;100988.09;;;0.35;80.10
76060;BME280;64759;52.220;5.170;2023-03-11T06:54:19;100978.59;;;0.38;80.15
76060;BME280;64759;52.220;5.170;2023-03-11T06:56:45;100984.28;;;0.43;81.25
76060;BME280;64759;52.220;5.170;2023-03-11T06:59:13;100991.34;;;0.55;81.22
76060;BME280;64759;52.220;5.170;2023-03-11T07:01:39;101003.59;;;0.66;80.38
76060;BME280;64759;52.220;5.170;2023-03-11T07:04:06;101011.66;;;0.74;80.43
76060;BME280;64759;52.220;5.170;2023-03-11T07:06:33;101014.66;;;0.82;80.03
76060;BME280;64759;52.220;5.170;2023-03-11T07:09:20;101017.06;;;0.85;79.17
76060;BME280;64759;52.220;5.170;2023-03-11T07:11:47;101017.72;;;0.89;79.81
76060;BME280;64759;52.220;5.170;2023-03-11T07:14:19;101020.97;;;0.92;79.40
76060;BME280;64759;52.220;5.170;2023-03-11T07:16:49;101020.69;;;0.98;79.49
76060;BME280;64759;52.220;5.170;2023-03-11T07:19:22;101018.78;;;1.02;79.12
76060;BME280;64759;52.220;5.170;2023-03-11T07:21:47;101028.69;;;1.08;80.16
76060;BME280;64759;52.220;5.170;2023-03-11T07:24:12;101032.00;;;1.10;79.67
76060;BME280;64759;52.220;5.170;2023-03-11T07:26:38;101040.09;;;1.18;79.46
76060;BME280;64759;52.220;5.170;2023-03-11T07:29:04;101038.66;;;1.29;79.49
76060;BME280;64759;52.220;5.170;2023-03-11T07:31:32;101036.38;;;1.41;79.42
76060;BME280;64759;52.220;5.170;2023-03-11T07:34:00;101039.97;;;1.54;79.55
76060;BME280;64759;52.220;5.170;2023-03-11T07:36:26;101045.31;;;1.65;78.92
76060;BME280;64759;52.220;5.170;2023-03-11T07:38:59;101035.69;;;1.70;78.55
76060;BME280;64759;52.220;5.170;2023-03-11T07:41:28;101029.44;;;1.75;78.07
76060;BME280;64759;52.220;5.170;2023-03-11T07:43:56;101027.56;;;1.79;77.63
76060;BME280;64759;52.220;5.170;2023-03-11T07:46:23;101029.88;;;1.83;77.63
76060;BME280;64759;52.220;5.170;2023-03-11T07:48:49;101036.31;;;1.90;76.42
76060;BME280;64759;52.220;5.170;2023-03-11T07:51:18;101034.25;;;1.97;76.60
76060;BME280;64759;52.220;5.170;2023-03-11T07:53:44;101037.22;;;2.05;77.50
76060;BME280;64759;52.220;5.170;2023-03-11T07:56:11;101049.84;;;2.08;77.00
76060;BME280;64759;52.220;5.170;2023-03-11T07:58:37;101049.59;;;2.13;76.69
76060;BME280;64759;52.220;5.170;2023-03-11T08:01:08;101057.00;;;2.17;76.86
76060;BME280;64759;52.220;5.170;2023-03-11T08:03:34;101066.81;;;2.25;75.85
76060;BME280;64759;52.220;5.170;2023-03-11T08:06:00;101066.09;;;2.23;74.67
76060;BME280;64759;52.220;5.170;2023-03-11T08:08:26;101061.56;;;2.28;75.12
76060;BME280;64759;52.220;5.170;2023-03-11T08:10:51;101066.16;;;2.37;75.01
76060;BME280;64759;52.220;5.170;2023-03-11T08:13:16;101062.44;;;2.42;74.55
76060;BME280;64759;52.220;5.170;2023-03-11T08:15:42;101062.03;;;2.50;74.19
76060;BME280;64759;52.220;5.170;2023-03-11T08:18:08;101071.34;;;2.51;73.17
76060;BME280;64759;52.220;5.170;2023-03-11T08:20:33;101070.13;;;2.58;73.25
76060;BME280;64759;52.220;5.170;2023-03-11T08:22:59;101078.09;;;2.68;73.17
76060;BME280;64759;52.220;5.170;2023-03-11T08:25:25;101080.72;;;2.82;73.33
76060;BME280;64759;52.220;5.170;2023-03-11T08:27:51;101082.59;;;3.08;72.96
76060;BME280;64759;52.220;5.170;2023-03-11T08:30:16;101090.31;;;3.80;71.62
76060;BME280;64759;52.220;5.170;2023-03-11T08:32:42;101086.69;;;4.66;71.24
76060;BME280;64759;52.220;5.170;2023-03-11T08:35:09;101089.72;;;5.37;69.48
76060;BME280;64759;52.220;5.170;2023-03-11T08:37:34;101090.34;;;5.65;67.82
76060;BME280;64759;52.220;5.170;2023-03-11T08:39:59;101089.63;;;5.76;68.00
76060;BME280;64759;52.220;5.170;2023-03-11T08:42:25;101087.19;;;5.87;67.36
76060;BME280;64759;52.220;5.170;2023-03-11T08:44:50;101087.78;;;6.03;67.71
76060;BME280;64759;52.220;5.170;2023-03-11T08:47:15;101088.78;;;6.13;66.63
76060;BME280;64759;52.220;5.170;2023-03-11T08:49:41;101091.63;;;6.34;66.21
76060;BME280;64759;52.220;5.170;2023-03-11T08:52:06;101101.97;;;6.45;65.08
76060;BME280;64759;52.220;5.170;2023-03-11T08:54:32;101098.56;;;6.44;61.97
76060;BME280;64759;52.220;5.170;2023-03-11T08:56:57;101105.66;;;6.53;63.14
76060;BME280;64759;52.220;5.170;2023-03-11T08:59:28;101105.81;;;6.87;63.29
76060;BME280;64759;52.220;5.170;2023-03-11T09:01:53;101105.19;;;7.07;60.63
76060;BME280;64759;52.220;5.170;2023-03-11T09:04:19;101112.59;;;7.22;61.27
76060;BME280;64759;52.220;5.170;2023-03-11T09:06:45;101115.78;;;7.26;61.01
76060;BME280;64759;52.220;5.170;2023-03-11T09:09:13;101123.69;;;7.12;59.37
76060;BME280;64759;52.220;5.170;2023-03-11T09:11:40;101131.94;;;6.70;58.94
76060;BME280;64759;52.220;5.170;2023-03-11T09:14:06;101135.22;;;6.72;59.93
76060;BME280;64759;52.220;5.170;2023-03-11T09:16:32;101123.34;;;6.58;60.50
76060;BME280;64759;52.220;5.170;2023-03-11T09:18:57;101127.31;;;6.62;61.05
76060;BME280;64759;52.220;5.170;2023-03-11T09:21:24;101122.56;;;6.69;60.33
76060;BME280;64759;52.220;5.170;2023-03-11T09:23:50;101129.63;;;6.78;60.10
76060;BME280;64759;52.220;5.170;2023-03-11T09:26:15;101124.25;;;7.04;60.11
76060;BME280;64759;52.220;5.170;2023-03-11T09:28:41;101138.41;;;7.34;59.81
76060;BME280;64759;52.220;5.170;2023-03-11T09:31:06;101139.50;;;7.53;57.68
76060;BME280;64759;52.220;5.170;2023-03-11T09:33:38;101132.16;;;7.71;57.70
76060;BME280;64759;52.220;5.170;2023-03-11T09:36:05;101131.25;;;8.05;58.30
76060;BME280;64759;52.220;5.170;2023-03-11T09:38:37;101127.56;;;8.63;56.93
76060;BME280;64759;52.220;5.170;2023-03-11T09:41:15;101127.63;;;9.15;55.32
76060;BME280;64759;52.220;5.170;2023-03-11T09:43:50;101135.50;;;9.55;50.74
76060;BME280;64759;52.220;5.170;2023-03-11T09:46:49;101132.00;;;9.86;45.87
76060;BME280;64759;52.220;5.170;2023-03-11T09:49:44;101142.81;;;10.01;46.34
76060;BME280;64759;52.220;5.170;2023-03-11T09:52:14;101126.91;;;10.06;47.79
76060;BME280;64759;52.220;5.170;2023-03-11T09:54:52;101130.06;;;10.09;48.33
76060;BME280;64759;52.220;5.170;2023-03-11T09:57:31;101125.13;;;10.36;48.05
76060;BME280;64759;52.220;5.170;2023-03-11T10:00:00;101126.06;;;10.05;47.30
76060;BME280;64759;52.220;5.170;2023-03-11T10:02:38;101135.94;;;9.60;46.27
76060;BME280;64759;52.220;5.170;2023-03-11T10:05:21;101135.06;;;9.30;48.67
76060;BME280;64759;52.220;5.170;2023-03-11T10:10:47;101135.59;;;8.92;48.35
76060;BME280;64759;52.220;5.170;2023-03-11T10:13:24;101135.66;;;8.70;50.54
76060;BME280;64759;52.220;5.170;2023-03-11T10:24:08;101140.56;;;9.04;47.77
76060;BME280;64759;52.220;5.170;2023-03-11T10:26:43;101143.13;;;9.15;48.80
76060;BME280;64759;52.220;5.170;2023-03-11T10:31:42;101139.38;;;9.29;47.69
76060;BME280;64759;52.220;5.170;2023-03-11T10:34:17;101125.22;;;9.65;49.52
76060;BME280;64759;52.220;5.170;2023-03-11T10:36:59;101132.66;;;10.09;49.62
76060;BME280;64759;52.220;5.170;2023-03-11T10:39:30;101131.59;;;10.12;47.99
76060;BME280;64759;52.220;5.170;2023-03-11T10:42:02;101141.94;;;10.12;49.29
76060;BME280;64759;52.220;5.170;2023-03-11T10:44:34;101133.41;;;10.30;49.94
76060;BME280;64759;52.220;5.170;2023-03-11T10:47:00;101135.38;;;10.47;47.68
76060;BME280;64759;52.220;5.170;2023-03-11T10:49:26;101134.47;;;10.68;46.33
76060;BME280;64759;52.220;5.170;2023-03-11T10:51:53;101128.28;;;10.59;48.14
76060;BME280;64759;52.220;5.170;2023-03-11T10:54:28;101127.53;;;10.19;45.12
76060;BME280;64759;52.220;5.170;2023-03-11T10:56:57;101137.78;;;10.00;46.80
76060;BME280;64759;52.220;5.170;2023-03-11T10:59:27;101135.66;;;9.63;49.34
76060;BME280;64759;52.220;5.170;2023-03-11T11:02:26;101141.84;;;9.72;50.98
76060;BME280;64759;52.220;5.170;2023-03-11T11:05:06;101149.25;;;10.07;48.93
76060;BME280;64759;52.220;5.170;2023-03-11T11:07:37;101149.50;;;10.04;48.94
76060;BME280;64759;52.220;5.170;2023-03-11T11:10:18;101158.69;;;10.17;46.47
76060;BME280;64759;52.220;5.170;2023-03-11T11:13:23;101152.31;;;10.21;48.62
76060;BME280;64759;52.220;5.170;2023-03-11T11:15:55;101150.25;;;10.55;47.40
76060;BME280;64759;52.220;5.170;2023-03-11T11:24:24;101155.75;;;10.90;46.24
76060;BME280;64759;52.220;5.170;2023-03-11T11:29:39;101157.13;;;10.35;46.01
76060;BME280;64759;52.220;5.170;2023-03-11T11:34:39;101154.38;;;10.77;48.13
76060;BME280;64759;52.220;5.170;2023-03-11T11:37:05;101152.09;;;10.93;47.44
76060;BME280;64759;52.220;5.170;2023-03-11T11:39:44;101147.03;;;11.20;47.05
76060;BME280;64759;52.220;5.170;2023-03-11T11:42:18;101156.28;;;10.75;43.40
76060;BME280;64759;52.220;5.170;2023-03-11T11:44:46;101150.16;;;10.76;45.84
76060;BME280;64759;52.220;5.170;2023-03-11T11:47:17;101156.44;;;11.02;45.85
76060;BME280;64759;52.220;5.170;2023-03-11T11:49:53;101144.56;;;10.80;45.35
76060;BME280;64759;52.220;5.170;2023-03-11T11:52:42;101141.81;;;10.72;46.23
76060;BME280;64759;52.220;5.170;2023-03-11T11:55:20;101149.91;;;10.29;43.43
76060;BME280;64759;52.220;5.170;2023-03-11T11:57:47;101150.81;;;10.19;46.88
76060;BME280;64759;52.220;5.170;2023-03-11T12:00:22;101151.84;;;10.07;45.18
76060;BME280;64759;52.220;5.170;2023-03-11T12:03:16;101150.72;;;10.00;46.36
76060;BME280;64759;52.220;5.170;2023-03-11T12:05:55;101148.84;;;9.81;47.20
76060;BME280;64759;52.220;5.170;2023-03-11T12:08:26;101147.59;;;9.55;44.68
76060;BME280;64759;52.220;5.170;2023-03-11T12:11:00;101146.03;;;9.43;46.94
76060;BME280;64759;52.220;5.170;2023-03-11T12:13:48;101132.03;;;9.45;44.59
76060;BME280;64759;52.220;5.170;2023-03-11T12:19:02;101138.22;;;9.33;46.28
76060;BME280;64759;52.220;5.170;2023-03-11T12:24:42;101133.75;;;9.86;41.08
76060;BME280;64759;52.220;5.170;2023-03-11T12:27:21;101136.91;;;9.90;44.86
76060;BME280;64759;52.220;5.170;2023-03-11T12:30:04;101127.78;;;9.95;44.91
76060;BME280;64759;52.220;5.170;2023-03-11T12:32:42;101133.75;;;9.86;44.61
76060;BME280;64759;52.220;5.170;2023-03-11T12:35:19;101130.38;;;9.65;44.65
76060;BME280;64759;52.220;5.170;2023-03-11T12:37:46;101136.97;;;9.48;44.87
76060;BME280;64759;52.220;5.170;2023-03-11T12:46:03;101132.03;;;9.45;46.56
76060;BME280;64759;52.220;5.170;2023-03-11T12:48:32;101135.31;;;9.47;45.93
76060;BME280;64759;52.220;5.170;2023-03-11T12:50:59;101135.03;;;9.71;45.93
76060;BME280;64759;52.220;5.170;2023-03-11T12:56:19;101138.28;;;10.14;45.18
76060;BME280;64759;52.220;5.170;2023-03-11T12:58:59;101143.28;;;10.46;44.54
76060;BME280;64759;52.220;5.170;2023-03-11T13:04:21;101137.63;;;11.00;40.92
76060;BME280;64759;52.220;5.170;2023-03-11T13:09:23;101131.47;;;10.82;41.86
76060;BME280;64759;52.220;5.170;2023-03-11T13:11:48;101135.03;;;10.71;40.11
76060;BME280;64759;52.220;5.170;2023-03-11T13:14:34;101128.25;;;10.40;42.09
76060;BME280;64759;52.220;5.170;2023-03-11T13:17:23;101133.78;;;10.75;41.70
76060;BME280;64759;52.220;5.170;2023-03-11T13:19:51;101133.28;;;10.91;41.05
76060;BME280;64759;52.220;5.170;2023-03-11T13:22:43;101128.47;;;10.96;40.99
76060;BME280;64759;52.220;5.170;2023-03-11T13:30:51;101124.91;;;11.35;42.33
76060;BME280;64759;52.220;5.170;2023-03-11T13:33:47;101128.31;;;11.36;41.66
76060;BME280;64759;52.220;5.170;2023-03-11T13:41:50;101125.19;;;11.32;40.13
76060;BME280;64759;52.220;5.170;2023-03-11T13:46:46;101125.75;;;11.07;41.79
76060;BME280;64759;52.220;5.170;2023-03-11T13:51:57;101129.84;;;11.29;40.84
76060;BME280;64759;52.220;5.170;2023-03-11T13:57:22;101133.88;;;10.55;39.01
76060;BME280;64759;52.220;5.170;2023-03-11T13:59:53;101144.75;;;10.39;38.96
76060;BME280;64759;52.220;5.170;2023-03-11T14:02:21;101139.06;;;10.15;39.10
76060;BME280;64759;52.220;5.170;2023-03-11T14:05:04;101141.66;;;10.15;40.47
76060;BME280;64759;52.220;5.170;2023-03-11T14:07:33;101142.13;;;9.99;38.79
76060;BME280;64759;52.220;5.170;2023-03-11T14:10:23;101139.28;;;9.72;39.68
76060;BME280;64759;52.220;5.170;2023-03-11T14:12:49;101142.75;;;9.61;40.13